sensor_id;sensor_type;location;lat;lon;timestamp;pressure;altitude;pressure_sealevel;temperature;humidity
64158;BME280;50449;51.528;5.076;2022-07-12T00:00:54;102290.53;;;25.36;42.58
64158;BME280;50449;51.528;5.076;2022-07-12T00:03:19;102284.47;;;25.34;42.50
64158;BME280;50449;51.528;5.076;2022-07-12T00:05:44;102281.19;;;25.32;42.17
64158;BME280;50449;51.528;5.076;2022-07-12T00:08:10;102284.56;;;25.29;42.76
64158;BME280;50449;51.528;5.076;2022-07-12T00:10:35;102281.28;;;25.26;42.77
64158;BME280;50449;51.528;5.076;2022-07-12T00:13:02;102283.53;;;25.24;42.25
64158;BME280;50449;51.528;5.076;2022-07-12T00:15:27;102277.78;;;25.21;42.73
64158;BME280;50449;51.528;5.076;2022-07-12T00:17:53;102290.81;;;25.20;42.47
64158;BME280;50449;51.528;5.076;2022-07-12T00:20:18;102296.09;;;25.17;42.44
64158;BME280;50449;51.528;5.076;2022-07-12T00:22:44;102293.13;;;25.13;42.67
64158;BME280;50449;51.528;5.076;2022-07-12T00:25:11;102294.22;;;25.12;42.47
64158;BME280;50449;51.528;5.076;2022-07-12T00:27:37;102286.53;;;25.09;42.29
64158;BME280;50449;51.528;5.076;2022-07-12T00:30:04;102293.50;;;25.07;42.46
64158;BME280;50449;51.528;5.076;2022-07-12T00:32:30;102296.88;;;25.03;42.77
64158;BME280;50449;51.528;5.076;2022-07-12T00:34:55;102290.00;;;25.01;42.84
64158;BME280;50449;51.528;5.076;2022-07-12T00:37:20;102290.31;;;24.99;42.79
64158;BME280;50449;51.528;5.076;2022-07-12T00:39:46;102287.03;;;24.97;42.45
64158;BME280;50449;51.528;5.076;2022-07-12T00:42:11;102280.19;;;24.95;42.46
64158;BME280;50449;51.528;5.076;2022-07-12T00:44:36;102274.41;;;24.91;42.89
64158;BME280;50449;51.528;5.076;2022-07-12T00:47:02;102282.19;;;24.89;42.79
64158;BME280;50449;51.528;5.076;2022-07-12T00:49:29;102282.78;;;24.86;42.43
64158;BME280;50449;51.528;5.076;2022-07-12T00:51:55;102282.28;;;24.84;42.43
64158;BME280;50449;51.528;5.076;2022-07-12T00:54:21;102284.84;;;24.80;42.90
64158;BME280;50449;51.528;5.076;2022-07-12T00:56:47;102285.13;;;24.79;42.90
64158;BME280;50449;51.528;5.076;2022-07-12T00:59:13;102281.03;;;24.76;42.99
64158;BME280;50449;51.528;5.076;2022-07-12T01:01:39;102276.09;;;24.73;42.90
64158;BME280;50449;51.528;5.076;2022-07-12T01:04:05;102273.63;;;24.72;42.56
64158;BME280;50449;51.528;5.076;2022-07-12T01:06:31;102274.25;;;24.69;42.95
64158;BME280;50449;51.528;5.076;2022-07-12T01:08:57;102275.66;;;24.66;43.03
64158;BME280;50449;51.528;5.076;2022-07-12T01:11:25;102274.66;;;24.62;42.42
64158;BME280;50449;51.528;5.076;2022-07-12T01:13:54;102275.53;;;24.57;42.53
64158;BME280;50449;51.528;5.076;2022-07-12T01:16:20;102271.13;;;24.56;42.70
64158;BME280;50449;51.528;5.076;2022-07-12T01:18:46;102274.50;;;24.53;42.95
64158;BME280;50449;51.528;5.076;2022-07-12T01:21:16;102274.78;;;24.52;42.90
64158;BME280;50449;51.528;5.076;2022-07-12T01:23:44;102270.69;;;24.49;42.90
64158;BME280;50449;51.528;5.076;2022-07-12T01:26:11;102274.84;;;24.47;42.77
64158;BME280;50449;51.528;5.076;2022-07-12T01:28:37;102272.66;;;24.44;42.88
64158;BME280;50449;51.528;5.076;2022-07-12T01:31:03;102275.75;;;24.42;42.76
64158;BME280;50449;51.528;5.076;2022-07-12T01:33:29;102268.03;;;24.39;43.10
64158;BME280;50449;51.528;5.076;2022-07-12T01:35:54;102274.69;;;24.38;42.44
64158;BME280;50449;51.528;5.076;2022-07-12T01:38:20;102278.06;;;24.35;42.55
64158;BME280;50449;51.528;5.076;2022-07-12T01:40:46;102277.53;;;24.33;42.99
64158;BME280;50449;51.528;5.076;2022-07-12T01:43:12;102278.13;;;24.30;42.57
64158;BME280;50449;51.528;5.076;2022-07-12T01:45:38;102270.47;;;24.27;42.61
64158;BME280;50449;51.528;5.076;2022-07-12T01:48:04;102271.88;;;24.24;42.55
64158;BME280;50449;51.528;5.076;2022-07-12T01:50:29;102264.69;;;24.23;42.95
64158;BME280;50449;51.528;5.076;2022-07-12T01:52:55;102263.63;;;24.19;42.97
64158;BME280;50449;51.528;5.076;2022-07-12T01:55:20;102262.28;;;24.16;42.75
64158;BME280;50449;51.528;5.076;2022-07-12T01:57:46;102262.63;;;24.15;42.61
64158;BME280;50449;51.528;5.076;2022-07-12T02:00:13;102259.59;;;24.11;42.76
64158;BME280;50449;51.528;5.076;2022-07-12T02:02:39;102264.63;;;24.09;42.70
64158;BME280;50449;51.528;5.076;2022-07-12T02:05:04;102265.19;;;24.06;42.56
64158;BME280;50449;51.528;5.076;2022-07-12T02:07:30;102267.47;;;24.04;42.37
64158;BME280;50449;51.528;5.076;2022-07-12T02:09:56;102265.00;;;24.03;43.07
64158;BME280;50449;51.528;5.076;2022-07-12T02:12:22;102269.16;;;24.00;42.81
64158;BME280;50449;51.528;5.076;2022-07-12T02:14:49;102271.72;;;23.96;42.57
64158;BME280;50449;51.528;5.076;2022-07-12T02:17:14;102260.94;;;23.95;42.71
64158;BME280;50449;51.528;5.076;2022-07-12T02:19:40;102264.84;;;23.94;42.78
64158;BME280;50449;51.528;5.076;2022-07-12T02:22:05;102269.31;;;23.90;42.52
64158;BME280;50449;51.528;5.076;2022-07-12T02:24:31;102267.16;;;23.87;43.00
64158;BME280;50449;51.528;5.076;2022-07-12T02:26:56;102274.88;;;23.85;43.16
64158;BME280;50449;51.528;5.076;2022-07-12T02:29:22;102275.50;;;23.82;42.93
64158;BME280;50449;51.528;5.076;2022-07-12T02:31:47;102276.59;;;23.81;42.68
64158;BME280;50449;51.528;5.076;2022-07-12T02:34:12;102275.56;;;23.77;43.18
64158;BME280;50449;51.528;5.076;2022-07-12T02:36:38;102272.25;;;23.74;42.93
64158;BME280;50449;51.528;5.076;2022-07-12T02:39:03;102268.97;;;23.72;43.33
64158;BME280;50449;51.528;5.076;2022-07-12T02:41:32;102263.19;;;23.69;43.07
64158;BME280;50449;51.528;5.076;2022-07-12T02:43:59;102270.13;;;23.66;43.13
64158;BME280;50449;51.528;5.076;2022-07-12T02:46:24;102268.47;;;23.65;43.40
64158;BME280;50449;51.528;5.076;2022-07-12T02:48:50;102266.31;;;23.62;42.97
64158;BME280;50449;51.528;5.076;2022-07-12T02:51:16;102267.72;;;23.60;43.00
64158;BME280;50449;51.528;5.076;2022-07-12T02:53:42;102268.84;;;23.59;43.08
64158;BME280;50449;51.528;5.076;2022-07-12T02:56:07;102275.75;;;23.56;43.20
64158;BME280;50449;51.528;5.076;2022-07-12T02:58:34;102268.06;;;23.53;42.95
64158;BME280;50449;51.528;5.076;2022-07-12T03:00:59;102275.78;;;23.51;42.93
64158;BME280;50449;51.528;5.076;2022-07-12T03:03:25;102268.94;;;23.48;43.31
64158;BME280;50449;51.528;5.076;2022-07-12T03:05:50;102272.28;;;23.45;43.20
64158;BME280;50449;51.528;5.076;2022-07-12T03:08:16;102270.94;;;23.43;43.46
64158;BME280;50449;51.528;5.076;2022-07-12T03:10:41;102268.47;;;23.41;43.46
64158;BME280;50449;51.528;5.076;2022-07-12T03:13:06;102269.03;;;23.38;43.48
64158;BME280;50449;51.528;5.076;2022-07-12T03:15:33;102267.41;;;23.37;43.28
64158;BME280;50449;51.528;5.076;2022-07-12T03:17:59;102264.13;;;23.35;43.55
64158;BME280;50449;51.528;5.076;2022-07-12T03:20:26;102265.00;;;23.30;43.26
64158;BME280;50449;51.528;5.076;2022-07-12T03:22:51;102266.41;;;23.28;43.11
64158;BME280;50449;51.528;5.076;2022-07-12T03:25:19;102267.81;;;23.25;43.68
64158;BME280;50449;51.528;5.076;2022-07-12T03:27:45;102266.19;;;23.24;43.39
64158;BME280;50449;51.528;5.076;2022-07-12T03:30:11;102273.91;;;23.22;43.25
64158;BME280;50449;51.528;5.076;2022-07-12T03:32:36;102271.75;;;23.19;43.67
64158;BME280;50449;51.528;5.076;2022-07-12T03:35:02;102273.97;;;23.17;43.77
64158;BME280;50449;51.528;5.076;2022-07-12T03:37:38;102267.38;;;23.13;43.34
64158;BME280;50449;51.528;5.076;2022-07-12T03:40:04;102275.94;;;23.11;43.25
64158;BME280;50449;51.528;5.076;2022-07-12T03:42:29;102272.66;;;23.09;43.37
64158;BME280;50449;51.528;5.076;2022-07-12T03:44:54;102285.09;;;23.07;43.35
64158;BME280;50449;51.528;5.076;2022-07-12T03:47:20;102275.19;;;23.06;43.46
64158;BME280;50449;51.528;5.076;2022-07-12T03:49:45;102276.59;;;23.03;43.88
64158;BME280;50449;51.528;5.076;2022-07-12T03:52:10;102275.22;;;23.01;43.68
64158;BME280;50449;51.528;5.076;2022-07-12T03:54:36;102271.13;;;22.98;43.46
64158;BME280;50449;51.528;5.076;2022-07-12T03:57:01;102276.88;;;22.97;43.52
64158;BME280;50449;51.528;5.076;2022-07-12T03:59:39;102279.09;;;22.95;43.67
64158;BME280;50449;51.528;5.076;2022-07-12T04:02:05;102285.19;;;22.92;43.39
64158;BME280;50449;51.528;5.076;2022-07-12T04:04:30;102290.16;;;22.89;43.82
64158;BME280;50449;51.528;5.076;2022-07-12T04:06:55;102290.75;;;22.86;43.95
64158;BME280;50449;51.528;5.076;2022-07-12T04:09:21;102291.84;;;22.85;43.70
64158;BME280;50449;51.528;5.076;2022-07-12T04:11:46;102289.66;;;22.82;44.08
64158;BME280;50449;51.528;5.076;2022-07-12T04:14:12;102286.38;;;22.80;43.47
64158;BME280;50449;51.528;5.076;2022-07-12T04:16:37;102288.63;;;22.78;43.87
64158;BME280;50449;51.528;5.076;2022-07-12T04:19:02;102296.34;;;22.76;43.80
64158;BME280;50449;51.528;5.076;2022-07-12T04:21:30;102293.06;;;22.74;43.61
64158;BME280;50449;51.528;5.076;2022-07-12T04:23:55;102299.97;;;22.72;43.58
64158;BME280;50449;51.528;5.076;2022-07-12T04:26:21;102300.22;;;22.70;43.57
64158;BME280;50449;51.528;5.076;2022-07-12T04:28:46;102304.38;;;22.67;43.95
64158;BME280;50449;51.528;5.076;2022-07-12T04:31:11;102308.25;;;22.66;43.67
64158;BME280;50449;51.528;5.076;2022-07-12T04:33:37;102306.91;;;22.64;43.54
64158;BME280;50449;51.528;5.076;2022-07-12T04:36:02;102309.94;;;22.62;43.58
64158;BME280;50449;51.528;5.076;2022-07-12T04:38:29;102305.81;;;22.60;43.87
64158;BME280;50449;51.528;5.076;2022-07-12T04:40:54;102309.69;;;22.59;43.71
64158;BME280;50449;51.528;5.076;2022-07-12T04:43:19;102302.00;;;22.56;43.78
64158;BME280;50449;51.528;5.076;2022-07-12T04:45:45;102301.47;;;22.54;43.61
64158;BME280;50449;51.528;5.076;2022-07-12T04:48:13;102295.13;;;22.53;44.25
64158;BME280;50449;51.528;5.076;2022-07-12T04:50:39;102296.81;;;22.49;43.84
64158;BME280;50449;51.528;5.076;2022-07-12T04:53:04;102295.44;;;22.46;44.03
64158;BME280;50449;51.528;5.076;2022-07-12T04:55:29;102297.38;;;22.46;44.17
64158;BME280;50449;51.528;5.076;2022-07-12T04:57:55;102302.34;;;22.44;43.93
64158;BME280;50449;51.528;5.076;2022-07-12T05:00:21;102302.63;;;22.42;43.94
64158;BME280;50449;51.528;5.076;2022-07-12T05:02:47;102307.31;;;22.42;44.24
64158;BME280;50449;51.528;5.076;2022-07-12T05:05:13;102304.88;;;22.40;44.05
64158;BME280;50449;51.528;5.076;2022-07-12T05:07:40;102314.22;;;22.39;44.32
64158;BME280;50449;51.528;5.076;2022-07-12T05:10:05;102316.16;;;22.39;43.93
64158;BME280;50449;51.528;5.076;2022-07-12T05:12:30;102313.97;;;22.36;44.53
64158;BME280;50449;51.528;5.076;2022-07-12T05:14:56;102315.59;;;22.37;44.26
64158;BME280;50449;51.528;5.076;2022-07-12T05:17:21;102324.16;;;22.35;44.62
64158;BME280;50449;51.528;5.076;2022-07-12T05:19:47;102318.13;;;22.33;44.35
64158;BME280;50449;51.528;5.076;2022-07-12T05:22:12;102320.88;;;22.33;44.39
64158;BME280;50449;51.528;5.076;2022-07-12T05:24:37;102319.22;;;22.32;44.15
64158;BME280;50449;51.528;5.076;2022-07-12T05:27:03;102324.72;;;22.32;44.40
64158;BME280;50449;51.528;5.076;2022-07-12T05:29:29;102336.56;;;22.33;44.62
64158;BME280;50449;51.528;5.076;2022-07-12T05:31:55;102332.16;;;22.32;44.77
64158;BME280;50449;51.528;5.076;2022-07-12T05:34:21;102342.88;;;22.33;45.00
64158;BME280;50449;51.528;5.076;2022-07-12T05:36:47;102342.88;;;22.33;44.47
64158;BME280;50449;51.528;5.076;2022-07-12T05:39:12;102349.22;;;22.34;44.97
64158;BME280;50449;51.528;5.076;2022-07-12T05:41:37;102347.28;;;22.34;45.10
64158;BME280;50449;51.528;5.076;2022-07-12T05:44:03;102347.28;;;22.34;45.30
64158;BME280;50449;51.528;5.076;2022-07-12T05:46:31;102348.94;;;22.35;45.29
64158;BME280;50449;51.528;5.076;2022-07-12T05:48:57;102358.84;;;22.36;45.18
64158;BME280;50449;51.528;5.076;2022-07-12T05:51:22;102360.47;;;22.37;44.88
64158;BME280;50449;51.528;5.076;2022-07-12T05:54:06;102358.56;;;22.38;45.18
64158;BME280;50449;51.528;5.076;2022-07-12T05:56:32;102362.13;;;22.38;44.89
64158;BME280;50449;51.528;5.076;2022-07-12T05:58:57;102361.00;;;22.39;44.91
64158;BME280;50449;51.528;5.076;2022-07-12T06:01:25;102360.75;;;22.41;45.05
64158;BME280;50449;51.528;5.076;2022-07-12T06:03:50;102363.19;;;22.42;45.35
64158;BME280;50449;51.528;5.076;2022-07-12T06:06:16;102366.78;;;22.43;45.70
64158;BME280;50449;51.528;5.076;2022-07-12T06:08:41;102363.75;;;22.44;45.20
64158;BME280;50449;51.528;5.076;2022-07-12T06:11:07;102365.41;;;22.45;46.02
64158;BME280;50449;51.528;5.076;2022-07-12T06:13:32;102375.84;;;22.49;46.11
64158;BME280;50449;51.528;5.076;2022-07-12T06:15:58;102367.28;;;22.50;45.74
64158;BME280;50449;51.528;5.076;2022-07-12T06:18:24;102372.53;;;22.52;46.12
64158;BME280;50449;51.528;5.076;2022-07-12T06:20:50;102371.94;;;22.55;45.70
64158;BME280;50449;51.528;5.076;2022-07-12T06:23:15;102373.31;;;22.57;45.71
64158;BME280;50449;51.528;5.076;2022-07-12T06:25:40;102368.34;;;22.59;45.98
64158;BME280;50449;51.528;5.076;2022-07-12T06:28:06;102372.47;;;22.62;46.28
64158;BME280;50449;51.528;5.076;2022-07-12T06:30:31;102364.75;;;22.64;45.92
64158;BME280;50449;51.528;5.076;2022-07-12T06:32:57;102370.78;;;22.66;46.32
64158;BME280;50449;51.528;5.076;2022-07-12T06:35:22;102364.16;;;22.67;45.83
64158;BME280;50449;51.528;5.076;2022-07-12T06:37:48;102371.84;;;22.70;46.01
64158;BME280;50449;51.528;5.076;2022-07-12T06:40:13;102374.34;;;22.72;46.18
64158;BME280;50449;51.528;5.076;2022-07-12T06:42:42;102364.66;;;22.74;45.75
64158;BME280;50449;51.528;5.076;2022-07-12T06:45:08;102365.50;;;22.75;46.27
64158;BME280;50449;51.528;5.076;2022-07-12T06:47:34;102358.59;;;22.77;46.05
64158;BME280;50449;51.528;5.076;2022-07-12T06:50:00;102362.69;;;22.80;46.16
64158;BME280;50449;51.528;5.076;2022-07-12T06:52:25;102370.38;;;22.83;46.56
64158;BME280;50449;51.528;5.076;2022-07-12T06:54:50;102369.00;;;22.85;46.23
64158;BME280;50449;51.528;5.076;2022-07-12T06:57:16;102358.50;;;22.87;46.42
64158;BME280;50449;51.528;5.076;2022-07-12T06:59:41;102355.19;;;22.90;46.57
64158;BME280;50449;51.528;5.076;2022-07-12T07:02:10;102360.13;;;22.94;46.97
64158;BME280;50449;51.528;5.076;2022-07-12T07:04:35;102361.50;;;22.96;46.89
64158;BME280;50449;51.528;5.076;2022-07-12T07:07:00;102372.78;;;23.00;46.50
64158;BME280;50449;51.528;5.076;2022-07-12T07:09:26;102370.56;;;23.02;46.28
64158;BME280;50449;51.528;5.076;2022-07-12T07:11:51;102377.44;;;23.04;47.01
64158;BME280;50449;51.528;5.076;2022-07-12T07:14:18;102377.41;;;23.09;47.26
64158;BME280;50449;51.528;5.076;2022-07-12T07:16:44;102370.47;;;23.12;47.02
64158;BME280;50449;51.528;5.076;2022-07-12T07:19:09;102370.72;;;23.16;47.10
64158;BME280;50449;51.528;5.076;2022-07-12T07:21:34;102365.47;;;23.19;47.59
64158;BME280;50449;51.528;5.076;2022-07-12T07:24:00;102374.28;;;23.21;47.74
64158;BME280;50449;51.528;5.076;2022-07-12T07:26:25;102373.41;;;23.26;47.42
64158;BME280;50449;51.528;5.076;2022-07-12T07:28:51;102375.06;;;23.27;47.13
64158;BME280;50449;51.528;5.076;2022-07-12T07:31:36;102372.53;;;23.30;47.81
64158;BME280;50449;51.528;5.076;2022-07-12T07:34:02;102366.16;;;23.35;47.48
64158;BME280;50449;51.528;5.076;2022-07-12T07:36:27;102369.16;;;23.39;47.52
64158;BME280;50449;51.528;5.076;2022-07-12T07:38:53;102369.38;;;23.42;48.15
64158;BME280;50449;51.528;5.076;2022-07-12T07:41:18;102367.41;;;23.48;47.79
64158;BME280;50449;51.528;5.076;2022-07-12T07:43:44;102363.78;;;23.52;47.91
64158;BME280;50449;51.528;5.076;2022-07-12T07:46:09;102372.81;;;23.58;48.61
64158;BME280;50449;51.528;5.076;2022-07-12T07:48:34;102363.97;;;23.61;48.52
64158;BME280;50449;51.528;5.076;2022-07-12T07:51:00;102367.50;;;23.67;48.29
64158;BME280;50449;51.528;5.076;2022-07-12T07:53:25;102362.22;;;23.70;48.11
64158;BME280;50449;51.528;5.076;2022-07-12T07:55:51;102368.00;;;23.74;48.34
64158;BME280;50449;51.528;5.076;2022-07-12T07:58:16;102371.81;;;23.78;48.00
64158;BME280;50449;51.528;5.076;2022-07-12T08:00:41;102363.47;;;23.83;48.40
64158;BME280;50449;51.528;5.076;2022-07-12T08:03:07;102368.94;;;23.88;48.13
64158;BME280;50449;51.528;5.076;2022-07-12T08:05:33;102368.06;;;23.93;47.77
64158;BME280;50449;51.528;5.076;2022-07-12T08:07:58;102362.47;;;23.98;47.69
64158;BME280;50449;51.528;5.076;2022-07-12T08:10:25;102366.00;;;24.04;47.80
64158;BME280;50449;51.528;5.076;2022-07-12T08:12:50;102359.59;;;24.08;48.12
64158;BME280;50449;51.528;5.076;2022-07-12T08:15:15;102366.72;;;24.14;47.84
64158;BME280;50449;51.528;5.076;2022-07-12T08:17:41;102358.34;;;24.19;47.50
64158;BME280;50449;51.528;5.076;2022-07-12T08:20:07;102356.63;;;24.24;47.48
64158;BME280;50449;51.528;5.076;2022-07-12T08:22:32;102359.31;;;24.29;47.55
64158;BME280;50449;51.528;5.076;2022-07-12T08:24:58;102361.72;;;24.35;47.63
64158;BME280;50449;51.528;5.076;2022-07-12T08:27:23;102361.66;;;24.40;47.84
64158;BME280;50449;51.528;5.076;2022-07-12T08:29:49;102364.91;;;24.48;47.42
64158;BME280;50449;51.528;5.076;2022-07-12T08:32:15;102364.84;;;24.53;47.46
64158;BME280;50449;51.528;5.076;2022-07-12T08:34:41;102362.81;;;24.58;47.71
64158;BME280;50449;51.528;5.076;2022-07-12T08:37:06;102361.63;;;24.65;47.26
64158;BME280;50449;51.528;5.076;2022-07-12T08:39:31;102363.19;;;24.71;47.17
64158;BME280;50449;51.528;5.076;2022-07-12T08:41:57;102363.94;;;24.76;47.30
64158;BME280;50449;51.528;5.076;2022-07-12T08:44:22;102362.75;;;24.82;46.93
64158;BME280;50449;51.528;5.076;2022-07-12T08:46:48;102367.59;;;24.91;47.45
64158;BME280;50449;51.528;5.076;2022-07-12T08:49:13;102372.75;;;24.97;47.48
64158;BME280;50449;51.528;5.076;2022-07-12T08:51:38;102370.72;;;25.03;47.16
64158;BME280;50449;51.528;5.076;2022-07-12T08:54:07;102375.84;;;25.10;46.70
64158;BME280;50449;51.528;5.076;2022-07-12T08:56:36;102377.97;;;25.18;46.52
64158;BME280;50449;51.528;5.076;2022-07-12T08:59:16;102371.22;;;25.24;46.75
64158;BME280;50449;51.528;5.076;2022-07-12T09:04:20;102375.13;;;25.37;46.75
64158;BME280;50449;51.528;5.076;2022-07-12T09:06:46;102379.13;;;25.44;46.91
64158;BME280;50449;51.528;5.076;2022-07-12T09:09:25;102375.66;;;25.53;46.29
64158;BME280;50449;51.528;5.076;2022-07-12T09:11:51;102370.56;;;25.60;46.50
64158;BME280;50449;51.528;5.076;2022-07-12T09:14:20;102377.34;;;25.67;46.17
64158;BME280;50449;51.528;5.076;2022-07-12T09:17:06;102369.97;;;25.77;46.60
64158;BME280;50449;51.528;5.076;2022-07-12T09:19:36;102373.16;;;25.84;46.17
64158;BME280;50449;51.528;5.076;2022-07-12T09:22:02;102369.69;;;25.92;46.29
64158;BME280;50449;51.528;5.076;2022-07-12T09:24:29;102371.44;;;26.02;46.08
64158;BME280;50449;51.528;5.076;2022-07-12T09:27:02;102364.34;;;26.09;46.58
64158;BME280;50449;51.528;5.076;2022-07-12T09:29:28;102368.06;;;26.19;46.15
64158;BME280;50449;51.528;5.076;2022-07-12T09:31:53;102362.91;;;26.26;45.97
64158;BME280;50449;51.528;5.076;2022-07-12T09:34:38;102358.59;;;26.33;45.58
64158;BME280;50449;51.528;5.076;2022-07-12T09:37:24;102359.47;;;26.43;45.37
64158;BME280;50449;51.528;5.076;2022-07-12T09:39:51;102359.56;;;26.51;45.34
64158;BME280;50449;51.528;5.076;2022-07-12T09:42:17;102363.59;;;26.59;45.84
64158;BME280;50449;51.528;5.076;2022-07-12T09:44:43;102352.88;;;26.66;45.63
64158;BME280;50449;51.528;5.076;2022-07-12T09:47:10;102359.00;;;26.77;45.35
64158;BME280;50449;51.528;5.076;2022-07-12T09:49:39;102355.78;;;26.84;45.41
64158;BME280;50449;51.528;5.076;2022-07-12T09:52:05;102348.69;;;26.91;45.42
64158;BME280;50449;51.528;5.076;2022-07-12T09:54:34;102346.75;;;27.01;44.97
64158;BME280;50449;51.528;5.076;2022-07-12T09:57:04;102347.66;;;27.10;44.93
64158;BME280;50449;51.528;5.076;2022-07-12T09:59:34;102338.59;;;27.18;44.65
64158;BME280;50449;51.528;5.076;2022-07-12T10:02:00;102338.66;;;27.27;44.61
64158;BME280;50449;51.528;5.076;2022-07-12T10:04:29;102350.28;;;27.37;44.68
64158;BME280;50449;51.528;5.076;2022-07-12T10:06:54;102357.84;;;27.46;44.34
64158;BME280;50449;51.528;5.076;2022-07-12T10:09:20;102367.34;;;27.53;44.17
64158;BME280;50449;51.528;5.076;2022-07-12T10:11:46;102361.84;;;27.62;44.33
64158;BME280;50449;51.528;5.076;2022-07-12T10:14:13;102357.47;;;27.70;44.01
64158;BME280;50449;51.528;5.076;2022-07-12T10:16:41;102359.13;;;27.79;43.85
64158;BME280;50449;51.528;5.076;2022-07-12T10:19:27;102358.88;;;27.90;43.71
64158;BME280;50449;51.528;5.076;2022-07-12T10:21:57;102353.34;;;27.98;43.40
64158;BME280;50449;51.528;5.076;2022-07-12T10:29:40;102351.44;;;28.25;43.24
64158;BME280;50449;51.528;5.076;2022-07-12T10:32:23;102352.75;;;28.36;42.93
64158;BME280;50449;51.528;5.076;2022-07-12T10:34:58;102351.97;;;28.44;42.78
64158;BME280;50449;51.528;5.076;2022-07-12T10:37:24;102363.13;;;28.53;42.88
64158;BME280;50449;51.528;5.076;2022-07-12T10:40:25;102358.84;;;28.64;42.83
64158;BME280;50449;51.528;5.076;2022-07-12T10:45:36;102351.66;;;28.81;42.60
64158;BME280;50449;51.528;5.076;2022-07-12T10:48:05;102347.22;;;28.88;42.67
64158;BME280;50449;51.528;5.076;2022-07-12T11:01:02;102330.31;;;29.28;41.68
64158;BME280;50449;51.528;5.076;2022-07-12T11:03:37;102331.75;;;29.34;41.30
64158;BME280;50449;51.528;5.076;2022-07-12T11:06:03;102328.94;;;29.43;41.29
64158;BME280;50449;51.528;5.076;2022-07-12T11:08:29;102331.69;;;29.52;41.01
64158;BME280;50449;51.528;5.076;2022-07-12T11:10:58;102339.19;;;29.60;40.73
64158;BME280;50449;51.528;5.076;2022-07-12T11:13:24;102335.13;;;29.66;41.00
64158;BME280;50449;51.528;5.076;2022-07-12T11:15:59;102332.28;;;29.75;40.23
64158;BME280;50449;51.528;5.076;2022-07-12T11:18:32;102328.97;;;29.82;40.26
64158;BME280;50449;51.528;5.076;2022-07-12T11:20:58;102331.22;;;29.88;39.95
64158;BME280;50449;51.528;5.076;2022-07-12T11:23:24;102338.72;;;29.96;40.32
64158;BME280;50449;51.528;5.076;2022-07-12T11:26:02;102336.56;;;30.02;40.09
64158;BME280;50449;51.528;5.076;2022-07-12T11:28:29;102337.66;;;30.10;40.27
64158;BME280;50449;51.528;5.076;2022-07-12T11:31:05;102339.91;;;30.16;39.80
64158;BME280;50449;51.528;5.076;2022-07-12T11:33:33;102342.13;;;30.23;40.09
64158;BME280;50449;51.528;5.076;2022-07-12T11:36:01;102344.75;;;30.28;39.51
64158;BME280;50449;51.528;5.076;2022-07-12T11:38:28;102349.44;;;30.36;39.65
64158;BME280;50449;51.528;5.076;2022-07-12T11:41:02;102343.66;;;30.41;39.42
64158;BME280;50449;51.528;5.076;2022-07-12T11:43:28;102335.94;;;30.47;39.60
64158;BME280;50449;51.528;5.076;2022-07-12T11:45:54;102336.53;;;30.53;38.76
64158;BME280;50449;51.528;5.076;2022-07-12T11:48:21;102337.13;;;30.58;39.25
64158;BME280;50449;51.528;5.076;2022-07-12T11:50:49;102338.91;;;30.63;39.25
64158;BME280;50449;51.528;5.076;2022-07-12T11:53:16;102335.56;;;30.70;39.29
64158;BME280;50449;51.528;5.076;2022-07-12T11:55:48;102335.00;;;30.76;38.79
64158;BME280;50449;51.528;5.076;2022-07-12T11:58:15;102332.00;;;30.81;38.89
64158;BME280;50449;51.528;5.076;2022-07-12T12:00:41;102325.44;;;30.86;38.81
64158;BME280;50449;51.528;5.076;2022-07-12T12:03:07;102314.84;;;30.92;39.13
64158;BME280;50449;51.528;5.076;2022-07-12T12:05:36;102319.88;;;30.98;39.03
64158;BME280;50449;51.528;5.076;2022-07-12T12:08:06;102313.28;;;31.03;38.74
64158;BME280;50449;51.528;5.076;2022-07-12T12:10:33;102316.66;;;31.09;38.39
64158;BME280;50449;51.528;5.076;2022-07-12T12:13:00;102318.41;;;31.13;38.23
64158;BME280;50449;51.528;5.076;2022-07-12T12:15:32;102324.25;;;31.20;37.99
64158;BME280;50449;51.528;5.076;2022-07-12T12:18:03;102320.06;;;31.26;38.58
64158;BME280;50449;51.528;5.076;2022-07-12T12:20:31;102316.22;;;31.31;38.45
64158;BME280;50449;51.528;5.076;2022-07-12T12:22:59;102316.81;;;31.37;38.39
64158;BME280;50449;51.528;5.076;2022-07-12T12:25:26;102311.84;;;31.42;38.75
64158;BME280;50449;51.528;5.076;2022-07-12T12:27:58;102317.22;;;31.47;38.45
64158;BME280;50449;51.528;5.076;2022-07-12T12:30:26;102319.31;;;31.51;38.13
64158;BME280;50449;51.528;5.076;2022-07-12T12:33:02;102303.13;;;31.56;38.48
64158;BME280;50449;51.528;5.076;2022-07-12T12:35:36;102314.06;;;31.61;37.98
64158;BME280;50449;51.528;5.076;2022-07-12T12:38:13;102311.84;;;31.67;38.27
64158;BME280;50449;51.528;5.076;2022-07-12T12:40:39;102319.19;;;31.72;38.24
64158;BME280;50449;51.528;5.076;2022-07-12T12:43:11;102313.84;;;31.79;37.91
64158;BME280;50449;51.528;5.076;2022-07-12T12:45:55;102307.66;;;31.85;37.80
64158;BME280;50449;51.528;5.076;2022-07-12T12:48:22;102321.41;;;31.90;37.53
64158;BME280;50449;51.528;5.076;2022-07-12T12:50:49;102304.41;;;31.96;37.69
64158;BME280;50449;51.528;5.076;2022-07-12T12:53:16;102302.53;;;32.00;37.78
64158;BME280;50449;51.528;5.076;2022-07-12T12:55:44;102301.13;;;32.06;37.97
64158;BME280;50449;51.528;5.076;2022-07-12T12:58:11;102297.28;;;32.10;37.62
64158;BME280;50449;51.528;5.076;2022-07-12T13:00:39;102298.19;;;32.15;36.63
64158;BME280;50449;51.528;5.076;2022-07-12T13:03:05;102302.72;;;32.19;36.80
64158;BME280;50449;51.528;5.076;2022-07-12T13:05:31;102302.47;;;32.24;36.56
64158;BME280;50449;51.528;5.076;2022-07-12T13:07:56;102301.44;;;32.29;36.54
64158;BME280;50449;51.528;5.076;2022-07-12T13:10:23;102300.38;;;32.33;36.85